createdAt,value
2023-05-23T00:00:17.309Z,99.90
2023-05-23T00:02:49.991Z,99.90
2023-05-23T00:05:22.573Z,99.90
2023-05-23T00:07:57.309Z,99.90
2023-05-23T00:10:29.784Z,99.90
2023-05-23T00:13:02.514Z,99.90
2023-05-23T00:15:34.780Z,99.90
2023-05-23T00:18:09.425Z,99.90
2023-05-23T00:20:42.993Z,99.90
2023-05-23T00:23:21.558Z,99.90
2023-05-23T00:25:54.445Z,99.90
2023-05-23T00:28:26.826Z,99.90
2023-05-23T00:30:59.022Z,99.90
2023-05-23T00:33:33.560Z,99.90
2023-05-23T00:36:06.589Z,99.90
2023-05-23T00:38:41.772Z,99.90
2023-05-23T00:41:14.129Z,99.90
2023-05-23T00:43:47.101Z,99.90
2023-05-23T00:46:19.416Z,99.90
2023-05-23T00:48:51.725Z,99.90
2023-05-23T00:51:24.494Z,99.90
2023-05-23T00:54:01.677Z,99.90
2023-05-23T00:56:34.212Z,99.90
2023-05-23T00:59:07.983Z,99.90
2023-05-23T01:01:41.367Z,99.90
2023-05-23T01:04:14.222Z,99.90
2023-05-23T01:06:47.304Z,99.90
2023-05-23T01:09:23.714Z,99.90
2023-05-23T01:12:07.717Z,99.90
2023-05-23T01:14:46.098Z,99.90
2023-05-23T01:17:25.637Z,99.90
2023-05-23T01:20:06.133Z,99.90
2023-05-23T01:22:55.783Z,99.90
2023-05-23T01:25:49.968Z,99.90
2023-05-23T01:28:28.404Z,99.90
2023-05-23T01:31:04.460Z,99.90
2023-05-23T01:33:38.272Z,99.90
2023-05-23T01:36:15.236Z,99.90
2023-05-23T01:38:47.478Z,99.90
2023-05-23T01:41:19.732Z,99.90
2023-05-23T01:43:54.800Z,99.90
2023-05-23T01:46:27.971Z,99.90
2023-05-23T01:49:01.258Z,99.90
2023-05-23T01:51:34.462Z,99.90
2023-05-23T01:54:07.577Z,99.90
2023-05-23T01:56:41.493Z,99.90
2023-05-23T01:59:16.477Z,99.90
2023-05-23T02:01:48.762Z,99.90
2023-05-23T02:04:21.732Z,99.90
2023-05-23T02:06:53.883Z,99.90
2023-05-23T02:09:26.072Z,99.90
2023-05-23T02:11:59.752Z,99.90
2023-05-23T02:14:34.621Z,99.90
2023-05-23T02:17:07.961Z,99.90
2023-05-23T02:19:40.292Z,99.90
2023-05-23T02:22:12.524Z,99.90
2023-05-23T02:24:44.719Z,99.90
2023-05-23T02:27:16.903Z,99.90
2023-05-23T02:29:51.674Z,99.90
2023-05-23T02:32:23.828Z,99.90
2023-05-23T02:34:57.413Z,99.90
2023-05-23T02:37:30.161Z,99.90
2023-05-23T02:40:02.407Z,99.90
2023-05-23T02:42:34.817Z,99.90
2023-05-23T02:45:10.800Z,99.90
2023-05-23T02:47:43.025Z,99.90
2023-05-23T02:50:15.312Z,99.90
2023-05-23T02:52:47.506Z,99.90
2023-05-23T02:55:19.754Z,99.90
2023-05-23T02:57:51.960Z,99.90
2023-05-23T03:00:28.640Z,99.90
2023-05-23T03:03:00.873Z,99.90
2023-05-23T03:05:33.165Z,99.90
2023-05-23T03:08:05.786Z,99.90
2023-05-23T03:10:38.109Z,99.90
2023-05-23T03:13:10.783Z,99.90
2023-05-23T03:15:46.646Z,99.90
2023-05-23T03:18:18.925Z,99.90
2023-05-23T03:20:51.279Z,99.90
2023-05-23T03:23:23.622Z,99.90
2023-05-23T03:25:56.079Z,99.90
2023-05-23T03:28:28.341Z,99.90
2023-05-23T03:31:03.183Z,99.90
2023-05-23T03:33:36.574Z,99.90
2023-05-23T03:36:10.835Z,99.90
2023-05-23T03:38:43.244Z,99.90
2023-05-23T03:41:15.604Z,99.90
2023-05-23T03:43:48.090Z,99.90
2023-05-23T03:46:23.194Z,99.90
2023-05-23T03:48:55.594Z,99.90
2023-05-23T03:51:28.635Z,99.90
2023-05-23T03:54:01.035Z,99.90
2023-05-23T03:56:33.468Z,99.90
2023-05-23T03:59:05.740Z,99.90
2023-05-23T04:01:40.729Z,99.90
2023-05-23T04:04:13.140Z,99.90
2023-05-23T04:06:45.572Z,99.90
2023-05-23T04:09:18.292Z,99.90
2023-05-23T04:11:50.741Z,99.90
2023-05-23T04:14:24.571Z,99.90
2023-05-23T04:17:01.327Z,99.90
2023-05-23T04:19:33.969Z,99.90
2023-05-23T04:22:06.386Z,99.90
2023-05-23T04:24:38.622Z,99.90
2023-05-23T04:27:10.879Z,99.90
2023-05-23T04:29:44.550Z,99.90
2023-05-23T04:32:23.277Z,99.90
2023-05-23T04:34:57.086Z,99.90
2023-05-23T04:37:29.428Z,99.90
2023-05-23T04:40:01.590Z,99.90
2023-05-23T04:42:33.971Z,99.90
2023-05-23T04:45:14.098Z,99.90
2023-05-23T04:47:56.699Z,99.90
2023-05-23T04:50:36.108Z,99.90
2023-05-23T04:53:17.424Z,99.90
2023-05-23T04:55:49.796Z,99.90
2023-05-23T04:58:22.038Z,99.90
2023-05-23T05:00:54.522Z,99.90
2023-05-23T05:03:29.287Z,99.90
2023-05-23T05:06:02.859Z,99.90
2023-05-23T05:08:42.468Z,99.90
2023-05-23T05:11:14.622Z,99.90
2023-05-23T05:13:46.882Z,99.90
2023-05-23T05:16:21.106Z,99.90
2023-05-23T05:18:56.034Z,99.90
2023-05-23T05:21:28.276Z,99.90
2023-05-23T05:24:00.370Z,99.90
2023-05-23T05:26:33.136Z,99.90
2023-05-23T05:29:05.293Z,99.90
2023-05-23T05:31:38.165Z,99.90
2023-05-23T05:34:16.166Z,99.90
2023-05-23T05:36:50.792Z,99.90
2023-05-23T05:39:25.278Z,99.90
2023-05-23T05:41:57.560Z,99.90
2023-05-23T05:44:29.674Z,99.90
2023-05-23T05:47:01.849Z,99.90
2023-05-23T05:49:47.514Z,99.90
2023-05-23T05:52:19.633Z,99.90
2023-05-23T05:54:51.818Z,99.90
2023-05-23T05:57:26.708Z,99.90
2023-05-23T05:59:58.920Z,99.90
2023-05-23T06:02:31.189Z,99.90
2023-05-23T06:05:08.186Z,99.90
2023-05-23T06:07:44.177Z,99.90
2023-05-23T06:10:16.499Z,99.90
2023-05-23T06:12:48.778Z,99.90
2023-05-23T06:15:20.980Z,99.90
2023-05-23T06:17:53.357Z,99.90
2023-05-23T06:20:28.896Z,99.90
2023-05-23T06:23:02.079Z,99.90
2023-05-23T06:25:34.256Z,99.90
2023-05-23T06:28:06.497Z,99.90
2023-05-23T06:30:39.385Z,99.90
2023-05-23T06:33:12.813Z,99.90
2023-05-23T06:35:47.570Z,99.90
2023-05-23T06:38:19.723Z,99.90
2023-05-23T06:40:51.849Z,99.90
2023-05-23T06:43:24.008Z,99.90
2023-05-23T06:45:56.345Z,99.90
2023-05-23T06:48:28.516Z,99.90
2023-05-23T06:51:03.265Z,99.90
2023-05-23T06:53:35.454Z,99.90
2023-05-23T06:56:07.737Z,99.90
2023-05-23T06:58:39.979Z,99.90
2023-05-23T07:01:12.378Z,99.90
2023-05-23T07:03:46.593Z,99.90
2023-05-23T07:06:21.328Z,99.90
2023-05-23T07:08:53.742Z,99.90
2023-05-23T07:11:35.787Z,99.90
2023-05-23T07:14:17.221Z,99.90
2023-05-23T07:16:58.774Z,99.90
2023-05-23T07:19:31.726Z,99.90
2023-05-23T07:22:06.609Z,99.90
2023-05-23T07:24:38.804Z,99.90
2023-05-23T07:27:18.660Z,99.90
2023-05-23T07:29:51.148Z,99.90
2023-05-23T07:32:23.248Z,99.90
2023-05-23T07:34:55.536Z,99.90
2023-05-23T07:37:30.395Z,99.20
2023-05-23T07:40:02.595Z,98.90
2023-05-23T07:42:37.747Z,98.10
2023-05-23T07:45:10.881Z,97.00
2023-05-23T07:47:43.167Z,96.20
2023-05-23T07:50:17.218Z,94.30
2023-05-23T07:52:52.353Z,94.30
2023-05-23T07:55:24.712Z,94.10
2023-05-23T07:57:56.955Z,93.70
2023-05-23T08:00:29.061Z,93.50
2023-05-23T08:03:01.406Z,92.50
2023-05-23T08:05:33.874Z,91.00
2023-05-23T08:08:08.754Z,90.30
2023-05-23T08:10:41.185Z,90.40
2023-05-23T08:13:13.525Z,89.60
2023-05-23T08:15:54.554Z,87.20
2023-05-23T08:18:32.944Z,87.20
2023-05-23T08:21:05.231Z,87.60
2023-05-23T08:23:40.123Z,87.40
2023-05-23T08:26:12.324Z,86.70
2023-05-23T08:28:44.425Z,86.40
2023-05-23T08:31:17.049Z,85.70
2023-05-23T08:33:49.329Z,85.70
2023-05-23T08:36:21.485Z,85.90
2023-05-23T08:38:59.180Z,86.00
2023-05-23T08:41:31.800Z,84.50
2023-05-23T08:44:04.019Z,84.90
2023-05-23T08:46:44.728Z,84.10
2023-05-23T08:49:18.614Z,83.40
2023-05-23T08:51:55.674Z,82.90
2023-05-23T08:54:30.600Z,83.00
2023-05-23T08:57:06.009Z,82.20
2023-05-23T08:59:39.740Z,81.70
2023-05-23T09:02:14.582Z,82.30
2023-05-23T09:04:47.017Z,82.70
2023-05-23T09:07:19.878Z,82.60
2023-05-23T09:09:57.241Z,82.20
2023-05-23T09:12:29.809Z,81.50
2023-05-23T09:15:02.019Z,81.00
2023-05-23T09:17:34.462Z,80.70
2023-05-23T09:20:19.671Z,80.70
2023-05-23T09:22:51.933Z,80.70
2023-05-23T09:25:27.052Z,80.20
2023-05-23T09:28:01.499Z,80.10
2023-05-23T09:30:35.023Z,79.80
2023-05-23T09:33:07.190Z,79.20
2023-05-23T09:35:44.802Z,78.50
2023-05-23T09:38:19.131Z,77.50
2023-05-23T09:40:56.661Z,76.90
2023-05-23T09:43:29.404Z,77.00
2023-05-23T09:46:01.967Z,76.30
2023-05-23T09:48:34.339Z,75.90
2023-05-23T09:51:07.700Z,75.80
2023-05-23T09:53:39.855Z,76.30
2023-05-23T09:56:16.903Z,76.50
2023-05-23T09:58:50.211Z,76.60
2023-05-23T10:01:25.006Z,76.10
2023-05-23T10:04:00.170Z,76.20
2023-05-23T10:06:38.269Z,76.30
2023-05-23T10:09:18.151Z,75.80
2023-05-23T10:12:32.509Z,75.90
2023-05-23T10:15:15.946Z,76.00
2023-05-23T10:18:02.394Z,75.50
2023-05-23T10:20:39.417Z,75.30
2023-05-23T10:23:13.472Z,75.30
2023-05-23T10:25:46.357Z,75.10
2023-05-23T10:28:19.948Z,75.10
2023-05-23T10:30:55.007Z,75.40
2023-05-23T10:33:31.806Z,75.40
2023-05-23T10:36:09.674Z,75.90
2023-05-23T10:38:47.497Z,76.00
2023-05-23T10:41:27.590Z,76.70
2023-05-23T10:44:07.474Z,78.40
2023-05-23T10:46:55.823Z,76.60
2023-05-23T10:49:41.593Z,77.90
2023-05-23T10:52:15.360Z,77.60
2023-05-23T10:54:49.462Z,77.70
2023-05-23T10:57:27.924Z,76.90
2023-05-23T11:00:00.181Z,75.60
2023-05-23T11:02:35.042Z,76.20
2023-05-23T11:05:23.506Z,76.30
2023-05-23T11:08:09.377Z,75.90
2023-05-23T11:10:53.286Z,75.60
2023-05-23T11:13:25.746Z,77.00
2023-05-23T11:15:57.996Z,77.00
2023-05-23T11:18:37.670Z,78.90
2023-05-23T11:21:10.584Z,76.20
2023-05-23T11:23:43.395Z,75.40
2023-05-23T11:26:30.261Z,75.00
2023-05-23T11:29:04.356Z,74.60
2023-05-23T11:31:38.384Z,74.00
2023-05-23T11:34:14.224Z,73.30
2023-05-23T11:36:47.074Z,73.40
2023-05-23T11:39:21.033Z,72.20
2023-05-23T11:42:02.178Z,70.60
2023-05-23T11:44:34.344Z,69.90
2023-05-23T11:47:08.028Z,70.40
2023-05-23T11:49:45.509Z,70.90
2023-05-23T11:52:17.703Z,71.30
2023-05-23T11:54:49.920Z,70.90
2023-05-23T11:57:22.068Z,70.80
2023-05-23T11:59:54.702Z,71.10
2023-05-23T12:02:28.853Z,70.80
2023-05-23T12:05:11.180Z,71.00
2023-05-23T12:07:43.690Z,71.70
2023-05-23T12:10:22.544Z,71.70
2023-05-23T12:12:55.647Z,71.70
2023-05-23T12:15:28.649Z,72.70
2023-05-23T12:18:00.998Z,72.20
2023-05-23T12:20:36.478Z,72.40
2023-05-23T12:23:08.601Z,72.50
2023-05-23T12:25:44.525Z,72.20
2023-05-23T12:28:16.695Z,72.60
2023-05-23T12:30:49.787Z,73.20
2023-05-23T12:33:22.072Z,73.60
2023-05-23T12:35:57.270Z,73.70
2023-05-23T12:38:29.438Z,73.60
2023-05-23T12:41:15.650Z,73.30
2023-05-23T12:43:52.407Z,73.10
2023-05-23T12:46:25.872Z,73.00
2023-05-23T12:48:58.006Z,72.70
2023-05-23T12:51:32.740Z,72.50
2023-05-23T12:54:05.098Z,72.40
2023-05-23T12:56:37.312Z,71.80
2023-05-23T12:59:09.606Z,71.30
2023-05-23T13:01:42.124Z,70.50
2023-05-23T13:04:14.439Z,70.20
2023-05-23T13:06:49.203Z,70.00
2023-05-23T13:09:21.419Z,70.00
2023-05-23T13:11:53.566Z,70.30
2023-05-23T13:14:26.093Z,70.30
2023-05-23T13:16:58.960Z,70.00
2023-05-23T13:19:31.212Z,69.70
2023-05-23T13:22:06.611Z,69.50
2023-05-23T13:24:39.136Z,69.30
2023-05-23T13:27:11.429Z,69.20
2023-05-23T13:29:43.612Z,68.50
2023-05-23T13:32:15.903Z,69.10
2023-05-23T13:34:48.078Z,69.10
2023-05-23T13:37:22.889Z,69.20
2023-05-23T13:39:55.094Z,68.90
2023-05-23T13:42:27.270Z,69.40
2023-05-23T13:44:59.469Z,69.40
2023-05-23T13:47:31.728Z,67.50
2023-05-23T13:50:04.268Z,66.90
2023-05-23T13:52:41.094Z,66.50
2023-05-23T13:55:15.230Z,65.40
2023-05-23T13:57:47.571Z,65.40
2023-05-23T14:00:20.535Z,64.00
2023-05-23T14:02:52.677Z,63.50
2023-05-23T14:05:24.943Z,63.10
2023-05-23T14:07:59.785Z,63.50
2023-05-23T14:10:33.656Z,63.90
2023-05-23T14:13:07.203Z,64.30
2023-05-23T14:15:39.784Z,64.90
2023-05-23T14:18:12.146Z,65.20
2023-05-23T14:20:44.366Z,65.40
2023-05-23T14:23:19.099Z,65.50
2023-05-23T14:25:51.222Z,65.50
2023-05-23T14:28:23.391Z,64.90
2023-05-23T14:30:56.137Z,65.30
2023-05-23T14:33:28.433Z,65.10
2023-05-23T14:36:01.537Z,64.70
2023-05-23T14:38:36.315Z,64.90
2023-05-23T14:41:08.572Z,64.10
2023-05-23T14:43:40.849Z,64.00
2023-05-23T14:46:14.142Z,64.10
2023-05-23T14:48:46.473Z,64.40
2023-05-23T14:51:34.720Z,63.50
2023-05-23T14:54:13.515Z,62.90
2023-05-23T14:56:45.748Z,62.20
2023-05-23T14:59:17.901Z,61.70
2023-05-23T15:01:50.172Z,60.90
2023-05-23T15:04:22.560Z,61.10
2023-05-23T15:06:54.848Z,61.80
2023-05-23T15:09:29.781Z,61.80
2023-05-23T15:12:01.987Z,62.00
2023-05-23T15:14:34.162Z,62.20
2023-05-23T15:17:08.307Z,62.00
2023-05-23T15:19:43.307Z,62.00
2023-05-23T15:22:33.723Z,63.20
2023-05-23T15:25:11.088Z,63.60
2023-05-23T15:27:45.079Z,63.90
2023-05-23T15:30:17.501Z,64.30
2023-05-23T15:32:50.235Z,64.90
2023-05-23T15:35:22.511Z,65.40
2023-05-23T15:37:54.693Z,65.80
2023-05-23T15:40:29.427Z,66.00
2023-05-23T15:43:01.822Z,65.70
2023-05-23T15:45:34.117Z,65.70
2023-05-23T15:48:06.381Z,65.20
2023-05-23T15:50:39.266Z,64.30
2023-05-23T15:53:11.626Z,64.20
2023-05-23T15:55:46.504Z,64.20
2023-05-23T15:58:18.653Z,64.20
2023-05-23T16:00:51.143Z,64.40
2023-05-23T16:03:23.483Z,64.40
2023-05-23T16:05:55.720Z,64.60
2023-05-23T16:08:27.881Z,64.70
2023-05-23T16:11:02.625Z,64.90
2023-05-23T16:13:34.793Z,64.90
2023-05-23T16:16:07.169Z,65.20
2023-05-23T16:18:39.460Z,65.30
2023-05-23T16:21:11.886Z,65.30
2023-05-23T16:23:44.114Z,65.20
2023-05-23T16:26:19.765Z,65.20
2023-05-23T16:28:54.361Z,64.90
2023-05-23T16:31:27.786Z,65.00
2023-05-23T16:34:00.304Z,65.40
2023-05-23T16:36:32.887Z,66.00
2023-05-23T16:39:05.233Z,66.10
2023-05-23T16:41:40.030Z,66.10
2023-05-23T16:44:12.285Z,66.10
2023-05-23T16:46:44.890Z,66.20
2023-05-23T16:49:17.403Z,66.20
2023-05-23T16:51:49.613Z,66.30
2023-05-23T16:54:21.788Z,66.50
2023-05-23T16:56:57.860Z,66.70
2023-05-23T16:59:30.250Z,66.80
2023-05-23T17:02:02.749Z,66.80
2023-05-23T17:04:35.333Z,67.00
2023-05-23T17:07:09.838Z,67.10
2023-05-23T17:09:42.068Z,67.60
2023-05-23T17:12:16.950Z,67.20
2023-05-23T17:14:49.350Z,67.30
2023-05-23T17:17:21.687Z,67.40
2023-05-23T17:19:54.985Z,67.50
2023-05-23T17:22:27.290Z,67.60
2023-05-23T17:25:01.456Z,67.70
2023-05-23T17:27:36.219Z,67.50
2023-05-23T17:30:09.884Z,67.20
2023-05-23T17:32:43.658Z,67.10
2023-05-23T17:35:16.101Z,66.80
2023-05-23T17:37:48.274Z,66.50
2023-05-23T17:40:20.837Z,66.60
2023-05-23T17:42:55.699Z,66.70
2023-05-23T17:45:28.169Z,66.80
2023-05-23T17:48:04.009Z,67.00
2023-05-23T17:50:36.812Z,67.20
2023-05-23T17:53:09.102Z,67.20
2023-05-23T17:55:41.418Z,67.40
2023-05-23T17:58:16.773Z,67.60
2023-05-23T18:00:49.192Z,67.80
2023-05-23T18:03:22.488Z,67.90
2023-05-23T18:05:54.791Z,68.10
2023-05-23T18:08:27.210Z,68.20
2023-05-23T18:11:02.674Z,68.30
2023-05-23T18:13:37.782Z,68.30
2023-05-23T18:16:09.966Z,68.40
2023-05-23T18:18:42.268Z,68.50
2023-05-23T18:21:18.060Z,68.50
2023-05-23T18:23:51.164Z,68.80
2023-05-23T18:26:26.454Z,68.90
2023-05-23T18:29:04.810Z,69.00
2023-05-23T18:31:40.218Z,69.10
2023-05-23T18:37:29.301Z,69.30
2023-05-23T18:40:01.733Z,69.40
2023-05-23T18:42:34.255Z,69.50
2023-05-23T18:45:10.775Z,69.50
2023-05-23T18:47:43.012Z,69.40
2023-05-23T18:50:15.415Z,69.30
2023-05-23T18:52:47.692Z,69.30
2023-05-23T18:55:20.499Z,69.20
2023-05-23T18:57:54.064Z,69.80
2023-05-23T19:00:28.878Z,69.20
2023-05-23T19:03:01.362Z,69.10
2023-05-23T19:05:33.686Z,69.10
2023-05-23T19:08:06.179Z,69.20
2023-05-23T19:10:38.425Z,69.30
2023-05-23T19:13:10.679Z,69.50
2023-05-23T19:15:50.494Z,69.50
2023-05-23T19:18:22.919Z,69.60
2023-05-23T19:20:56.760Z,69.70
2023-05-23T19:23:29.074Z,69.90
2023-05-23T19:26:01.371Z,70.00
2023-05-23T19:28:33.516Z,70.10
2023-05-23T19:31:08.356Z,70.10
2023-05-23T19:33:40.522Z,70.30
2023-05-23T19:36:12.867Z,70.40
2023-05-23T19:38:45.027Z,70.60
2023-05-23T19:41:19.513Z,70.80
2023-05-23T19:43:52.901Z,70.90
2023-05-23T19:46:29.208Z,71.00
2023-05-23T19:49:01.706Z,71.30
2023-05-23T19:51:34.173Z,71.40
2023-05-23T19:54:06.542Z,71.50
2023-05-23T19:56:40.159Z,71.60
2023-05-23T19:59:12.803Z,71.80
2023-05-23T20:01:47.606Z,72.00
2023-05-23T20:04:19.867Z,71.80
2023-05-23T20:06:52.448Z,71.50
2023-05-23T20:09:24.810Z,71.40
2023-05-23T20:11:57.138Z,71.20
2023-05-23T20:14:30.857Z,70.90
2023-05-23T20:17:05.992Z,70.70
2023-05-23T20:19:39.224Z,71.40
2023-05-23T20:22:11.706Z,71.20
2023-05-23T20:24:44.120Z,70.30
2023-05-23T20:27:16.875Z,69.10
2023-05-23T20:29:50.067Z,68.10
2023-05-23T20:32:24.875Z,67.30
2023-05-23T20:34:57.044Z,66.20
2023-05-23T20:37:29.289Z,65.10
2023-05-23T20:40:01.434Z,64.40
2023-05-23T20:42:36.606Z,63.50
2023-05-23T20:45:09.756Z,62.70
2023-05-23T20:47:45.121Z,62.10
2023-05-23T20:50:19.275Z,61.60
2023-05-23T20:52:51.924Z,61.20
2023-05-23T20:55:24.257Z,60.90
2023-05-23T20:57:56.412Z,61.10
2023-05-23T21:00:28.664Z,60.40
2023-05-23T21:03:03.753Z,60.10
2023-05-23T21:05:36.194Z,59.90
2023-05-23T21:08:08.507Z,59.60
2023-05-23T21:10:41.329Z,59.40
2023-05-23T21:13:13.737Z,59.30
2023-05-23T21:15:45.894Z,59.20
2023-05-23T21:18:20.978Z,59.00
2023-05-23T21:20:53.166Z,58.90
2023-05-23T21:23:25.363Z,58.80
2023-05-23T21:25:57.735Z,58.70
2023-05-23T21:28:29.949Z,58.50
2023-05-23T21:31:03.588Z,58.40
2023-05-23T21:33:38.476Z,58.30
2023-05-23T21:36:10.873Z,58.20
2023-05-23T21:38:43.063Z,58.20
2023-05-23T21:41:15.259Z,58.20
2023-05-23T21:43:47.403Z,58.00
2023-05-23T21:46:19.694Z,58.00
2023-05-23T21:48:54.397Z,58.10
2023-05-23T21:51:28.855Z,58.00
2023-05-23T21:54:01.342Z,57.90
2023-05-23T21:56:33.775Z,57.80
2023-05-23T21:59:05.931Z,57.90
2023-05-23T22:01:38.229Z,57.60
2023-05-23T22:04:13.175Z,57.50
2023-05-23T22:06:45.406Z,57.40
2023-05-23T22:09:18.548Z,57.30
2023-05-23T22:11:50.924Z,57.30
2023-05-23T22:14:23.180Z,57.40
2023-05-23T22:16:56.295Z,57.50
2023-05-23T22:19:31.129Z,57.40
2023-05-23T22:22:03.471Z,57.40
2023-05-23T22:24:36.099Z,57.40
2023-05-23T22:27:08.312Z,57.30
2023-05-23T22:29:40.654Z,57.20
2023-05-23T22:32:12.918Z,57.10
2023-05-23T22:34:49.011Z,57.20
2023-05-23T22:37:21.174Z,57.10
2023-05-23T22:39:53.415Z,57.10
2023-05-23T22:42:25.594Z,57.10
2023-05-23T22:44:57.864Z,57.20
2023-05-23T22:47:34.253Z,57.10
2023-05-23T22:50:10.301Z,57.00
2023-05-23T22:52:45.492Z,57.00
2023-05-23T22:55:18.083Z,57.00
2023-05-23T22:57:50.277Z,56.90
2023-05-23T23:00:22.539Z,56.90
2023-05-23T23:02:54.967Z,56.80
2023-05-23T23:05:29.811Z,56.80
2023-05-23T23:08:02.035Z,56.80
2023-05-23T23:10:34.211Z,56.60
2023-05-23T23:13:06.619Z,56.50
2023-05-23T23:15:40.385Z,56.60
2023-05-23T23:18:13.901Z,56.50
2023-05-23T23:20:48.707Z,56.40
2023-05-23T23:23:21.120Z,56.80
2023-05-23T23:25:53.386Z,57.30
2023-05-23T23:28:25.645Z,58.00
2023-05-23T23:30:57.835Z,58.70
2023-05-23T23:33:30.102Z,59.60
2023-05-23T23:36:05.646Z,60.30
2023-05-23T23:38:38.325Z,61.60
2023-05-23T23:41:11.082Z,61.50
2023-05-23T23:43:43.285Z,62.00
2023-05-23T23:46:15.638Z,62.60
2023-05-23T23:48:47.841Z,63.10
2023-05-23T23:51:22.584Z,63.70
2023-05-23T23:53:54.754Z,64.20
2023-05-23T23:56:26.963Z,64.50
2023-05-23T23:58:59.357Z,64.90
